Time;durP1;ratioP1;P1;durP2;ratioP2;P2;SDS_P1;SDS_P2;PMS_P1;PMS_P2;Temp;Humidity;BMP_temperature;BMP_pressure;BME280_temperature;BME280_humidity;BME280_pressure;Samples;Min_cycle;Max_cycle;Signal;HPM_P1;HPM_P2
2022/06/09 00:01:20;;;;;;;6.95;1.55;;;21.80;78.10;;;;;;5052168;28;20025;-47
2022/06/09 00:03:56;;;;;;;5.28;1.20;;;21.80;66.60;;;;;;5051790;28;20053;-46
2022/06/09 00:06:25;;;;;;;3.45;0.90;;;21.80;66.30;;;;;;5052273;28;20399;-47
2022/06/09 00:08:52;;;;;;;4.97;1.23;;;21.80;66.00;;;;;;5051915;28;20032;-46
2022/06/09 00:11:23;;;;;;;3.85;1.17;;;21.80;66.20;;;;;;5051885;28;20025;-47
2022/06/09 00:13:49;;;;;;;3.70;0.90;;;21.70;64.90;;;;;;5051782;28;20064;-46
2022/06/09 00:16:15;;;;;;;3.22;0.88;;;22.00;95.70;;;;;;5051845;28;20031;-47
2022/06/09 00:18:41;;;;;;;3.60;0.93;;;22.10;64.20;;;;;;5052006;28;20029;-46
2022/06/09 00:21:08;;;;;;;2.80;1.02;;;21.70;63.70;;;;;;5051984;28;20028;-47
2022/06/09 00:23:34;;;;;;;4.20;1.30;;;21.80;63.40;;;;;;5051930;28;20385;-47
2022/06/09 00:26:00;;;;;;;3.58;1.10;;;;;;;;;;5051715;28;20025;-47
2022/06/09 00:28:26;;;;;;;2.55;0.82;;;;;;;;;;5051677;28;20029;-46
2022/06/09 00:30:52;;;;;;;4.40;1.20;;;;;;;;;;5051611;28;20029;-47
2022/06/09 00:33:18;;;;;;;4.03;0.60;;;22.00;95.60;;;;;;5051650;28;20119;-47
2022/06/09 00:35:44;;;;;;;3.67;1.00;;;;;;;;;;5051626;28;20037;-46
2022/06/09 00:38:11;;;;;;;3.33;1.00;;;;;;;;;;5051580;28;20464;-47
2022/06/09 00:40:36;;;;;;;3.47;1.00;;;21.90;95.50;;;;;;5051911;28;20395;-46
2022/06/09 00:43:04;;;;;;;4.15;1.20;;;21.80;95.30;;;;;;5051517;28;20027;-46
2022/06/09 00:45:33;;;;;;;4.45;1.13;;;21.80;65.60;;;;;;5051814;28;20029;-46
2022/06/09 00:48:26;;;;;;;2.47;0.88;;;21.80;95.40;;;;;;5051526;28;20024;-46
2022/06/09 00:51:01;;;;;;;2.15;0.70;;;21.90;95.40;;;;;;5051883;28;20107;-46
2022/06/09 00:53:33;;;;;;;3.97;1.13;;;21.70;65.70;;;;;;5051474;28;20029;-47
2022/06/09 00:56:01;;;;;;;2.63;0.70;;;21.70;65.80;;;;;;5051467;28;20108;-46
2022/06/09 00:58:29;;;;;;;2.63;1.17;;;21.90;95.60;;;;;;5051500;28;20063;-47
2022/06/09 01:01:02;;;;;;;3.65;0.90;;;21.60;95.40;;;;;;5051696;28;20367;-46
2022/06/09 01:03:52;;;;;;;3.92;0.88;;;21.90;67.30;;;;;;5054681;28;20487;-47
2022/06/09 01:06:22;;;;;;;2.00;0.85;;;21.90;68.70;;;;;;5054348;28;20157;-46
2022/06/09 01:09:08;;;;;;;;;;;21.60;66.60;;;;;;5055438;28;20100;-46
2022/06/09 01:11:34;;;;;;;2.25;0.70;;;21.80;95.50;;;;;;5054916;28;19948;-47
2022/06/09 01:14:01;;;;;;;3.80;1.23;;;21.60;65.10;;;;;;5054768;28;20068;-47
2022/06/09 01:16:42;;;;;;;2.55;0.80;;;21.90;95.50;;;;;;5054785;28;20303;-46
2022/06/09 01:19:33;;;;;;;4.20;1.13;;;21.70;65.80;;;;;;5054807;28;20029;-48
2022/06/09 01:22:24;;;;;;;3.85;0.93;;;21.60;60.90;;;;;;5054739;28;20033;-47
2022/06/09 01:24:50;;;;;;;2.60;0.80;;;;;;;;;;5054682;28;20025;-46
2022/06/09 01:27:24;;;;;;;2.08;0.93;;;21.70;95.50;;;;;;5054808;28;20364;-46
2022/06/09 01:30:10;;;;;;;3.42;1.00;;;21.90;95.50;;;;;;5054582;28;20025;-46
2022/06/09 01:32:43;;;;;;;2.03;0.82;;;21.80;93.10;;;;;;5054221;28;20439;-46
2022/06/09 01:35:27;;;;;;;3.20;1.15;;;21.60;60.90;;;;;;5054360;28;20499;-46
2022/06/09 01:37:56;;;;;;;1.75;0.70;;;21.80;95.50;;;;;;5054658;28;20047;-47
2022/06/09 01:40:23;;;;;;;3.08;0.90;;;21.20;95.30;;;;;;5054401;28;20035;-47
2022/06/09 01:42:51;;;;;;;4.55;1.30;;;21.70;95.60;;;;;;5054294;28;20372;-46
2022/06/09 01:45:38;;;;;;;2.28;0.98;;;21.50;60.90;;;;;;5054167;28;20032;-46
2022/06/09 01:48:08;;;;;;;3.00;1.20;;;21.60;66.20;;;;;;5054436;28;20029;-46
2022/06/09 01:50:43;;;;;;;2.17;1.05;;;21.30;88.00;;;;;;5054167;28;20028;-46
2022/06/09 01:53:27;;;;;;;1.60;0.90;;;21.50;95.70;;;;;;5054048;28;20025;-47
2022/06/09 01:56:05;;;;;;;1.50;0.50;;;21.70;95.80;;;;;;5054371;28;20029;-46
2022/06/09 01:58:37;;;;;;;2.03;0.85;;;21.50;66.10;;;;;;5054065;28;20033;-47
2022/06/09 02:01:04;;;;;;;1.88;0.73;;;21.60;66.30;;;;;;5053965;28;20029;-47
2022/06/09 02:03:38;;;;;;;2.42;0.95;;;21.70;95.80;;;;;;5053701;28;20122;-46
2022/06/09 02:06:06;;;;;;;1.77;0.70;;;21.60;66.50;;;;;;5053809;28;20056;-47
2022/06/09 02:08:35;;;;;;;2.22;0.98;;;21.80;95.90;;;;;;5054057;28;20040;-46
2022/06/09 02:11:07;;;;;;;1.63;0.70;;;21.50;66.70;;;;;;5053793;28;20021;-47
2022/06/09 02:13:39;;;;;;;2.28;0.70;;;21.50;66.80;;;;;;5052924;28;20068;-46
2022/06/09 02:16:08;;;;;;;2.25;0.90;;;21.70;68.60;;;;;;5053946;28;20021;-47
2022/06/09 02:18:39;;;;;;;3.30;0.88;;;21.50;61.30;;;;;;5053895;28;20487;-48
2022/06/09 02:21:16;;;;;;;5.68;0.85;;;21.80;96.00;;;;;;5053615;28;20468;-46
2022/06/09 02:23:43;;;;;;;2.55;0.98;;;;;;;;;;5053526;28;20119;-46
2022/06/09 02:26:09;;;;;;;3.45;0.98;;;21.70;96.00;;;;;;5053476;28;20029;-46
2022/06/09 02:28:35;;;;;;;3.20;0.93;;;;;;;;;;5053664;28;20377;-48
2022/06/09 02:31:01;;;;;;;4.80;1.08;;;;;;;;;;5053339;28;20025;-47
2022/06/09 02:33:27;;;;;;;3.25;1.00;;;;;;;;;;5053535;28;20456;-47
2022/06/09 02:35:54;;;;;;;4.25;1.15;;;;;;;;;;5053347;28;20079;-46
2022/06/09 02:38:21;;;;;;;2.28;0.80;;;21.50;66.50;;;;;;5053455;28;20021;-46
2022/06/09 02:40:47;;;;;;;2.70;0.85;;;;;;;;;;5053134;28;20037;-47
2022/06/09 02:43:13;;;;;;;1.73;0.60;;;;;;;;;;5053141;28;20524;-47
2022/06/09 02:45:39;;;;;;;5.30;1.00;;;;;;;;;;5053054;28;20037;-47
2022/06/09 02:48:06;;;;;;;2.13;0.90;;;21.80;96.20;;;;;;5052996;28;20364;-47
2022/06/09 02:50:32;;;;;;;2.10;0.75;;;;;;;;;;5053173;28;20032;-46
2022/06/09 02:52:59;;;;;;;2.45;0.85;;;21.50;66.30;;;;;;5053336;28;20024;-46
2022/06/09 02:55:25;;;;;;;2.63;0.90;;;;;;;;;;5052897;28;20204;-47
2022/06/09 02:57:51;;;;;;;1.88;0.70;;;;;;;;;;5053165;28;20379;-47
2022/06/09 03:00:17;;;;;;;2.55;0.88;;;;;;;;;;5052826;28;20032;-47
2022/06/09 03:02:49;;;;;;;2.47;1.08;;;21.50;66.90;;;;;;5052431;28;20055;-48
2022/06/09 03:05:16;;;;;;;3.05;0.88;;;21.50;66.90;;;;;;5052695;28;20488;-50
2022/06/09 03:07:42;;;;;;;2.65;0.95;;;;;;;;;;5052879;28;20025;-46
2022/06/09 03:10:08;;;;;;;2.65;0.60;;;21.50;67.00;;;;;;5052664;28;20100;-47
2022/06/09 03:12:35;;;;;;;2.33;1.00;;;;;;;;;;5052574;28;20086;-47
2022/06/09 03:15:00;;;;;;;2.08;0.55;;;21.70;96.10;;;;;;5052520;28;20036;-47
2022/06/09 03:17:27;;;;;;;2.40;0.73;;;;;;;;;;5052466;28;20525;-47
2022/06/09 03:19:53;;;;;;;2.63;1.00;;;21.80;96.10;;;;;;5052457;28;20033;-47
2022/06/09 03:22:19;;;;;;;2.40;0.70;;;21.70;96.20;;;;;;5052421;28;20060;-46
2022/06/09 03:24:45;;;;;;;2.08;0.70;;;21.70;96.10;;;;;;5052162;28;20033;-46
2022/06/09 03:27:11;;;;;;;2.00;0.75;;;;;;;;;;5052384;28;20028;-46
2022/06/09 03:29:37;;;;;;;2.45;0.75;;;;;;;;;;5052348;28;20032;-47
2022/06/09 03:32:03;;;;;;;3.47;0.93;;;;;;;;;;5052322;28;20036;-48
2022/06/09 03:34:29;;;;;;;2.28;0.63;;;;;;;;;;5052134;28;20041;-46
2022/06/09 03:36:55;;;;;;;1.80;0.60;;;;;;;;;;5052169;28;20029;-48
2022/06/09 03:39:20;;;;;;;3.47;0.88;;;21.70;96.10;;;;;;5052200;28;20033;-47
2022/06/09 03:41:46;;;;;;;1.73;0.90;;;21.60;96.20;;;;;;5034286;28;20498;-47
2022/06/09 03:44:12;;;;;;;2.85;0.70;;;;;;;;;;5052067;28;20435;-48
2022/06/09 03:46:38;;;;;;;2.55;0.70;;;;;;;;;;5052069;28;20036;-46
2022/06/09 03:49:04;;;;;;;1.77;0.80;;;;;;;;;;5052099;28;20029;-46
2022/06/09 03:51:30;;;;;;;2.53;0.95;;;;;;;;;;5052287;28;20025;-46
2022/06/09 03:53:56;;;;;;;2.22;0.70;;;21.60;96.00;;;;;;5051914;28;20037;-46
2022/06/09 03:56:22;;;;;;;1.45;0.50;;;21.40;63.70;;;;;;5051999;28;20028;-47
2022/06/09 03:58:48;;;;;;;0.95;0.60;;;;;;;;;;5051921;28;20028;-46
2022/06/09 04:01:17;;;;;;;2.53;0.90;;;21.40;66.70;;;;;;5051726;28;20029;-46
2022/06/09 04:03:48;;;;;;;1.48;0.70;;;21.60;95.90;;;;;;5051769;28;20045;-46
2022/06/09 04:06:24;;;;;;;1.88;0.82;;;21.40;66.70;;;;;;5052002;28;20033;-46
2022/06/09 04:08:51;;;;;;;3.63;0.80;;;;;;;;;;5052124;28;20018;-46
2022/06/09 04:11:17;;;;;;;2.17;0.70;;;21.40;63.60;;;;;;5051917;28;20112;-47
2022/06/09 04:13:43;;;;;;;2.05;0.65;;;21.50;95.90;;;;;;5051870;28;20507;-47
2022/06/09 04:16:27;;;;;;;2.58;0.77;;;21.10;95.80;;;;;;5051846;28;20060;-47
2022/06/09 04:18:55;;;;;;;2.78;1.15;;;21.30;66.70;;;;;;5051777;28;20471;-49
2022/06/09 04:21:22;;;;;;;2.75;0.50;;;21.30;64.70;;;;;;5051807;28;20026;-47
2022/06/09 04:23:48;;;;;;;0.95;0.52;;;;;;;;;;5051786;28;20072;-47
2022/06/09 04:26:17;;;;;;;0.98;0.47;;;21.30;66.80;;;;;;5051767;28;20057;-47
2022/06/09 04:28:44;;;;;;;1.08;0.50;;;21.10;66.00;;;;;;5051672;28;20473;-47
2022/06/09 04:31:10;;;;;;;0.73;0.40;;;;;;;;;;5051719;28;20098;-47
2022/06/09 04:33:36;;;;;;;2.05;0.50;;;21.30;96.00;;;;;;5051830;28;20032;-47
2022/06/09 04:36:03;;;;;;;1.42;0.63;;;21.30;63.70;;;;;;5051599;28;20021;-47
2022/06/09 04:38:29;;;;;;;1.85;0.60;;;;;;;;;;5055187;28;20017;-46
2022/06/09 04:40:55;;;;;;;2.28;0.90;;;;;;;;;;5055341;28;20040;-46
2022/06/09 04:43:21;;;;;;;1.83;0.68;;;;;;;;;;5055509;28;20025;-47
2022/06/09 04:45:47;;;;;;;2.75;0.60;;;;;;;;;;5055309;28;20472;-46
2022/06/09 04:48:13;;;;;;;2.25;0.70;;;;;;;;;;5055317;28;20032;-48
2022/06/09 04:50:40;;;;;;;1.35;0.55;;;21.40;67.20;;;;;;5055255;28;20386;-47
2022/06/09 04:53:08;;;;;;;0.93;0.52;;;21.30;64.30;;;;;;5055462;28;20017;-47
2022/06/09 04:55:34;;;;;;;1.63;0.65;;;;;;;;;;5055245;28;20518;-47
2022/06/09 04:58:01;;;;;;;2.13;0.73;;;;;;;;;;5055118;28;20051;-47
2022/06/09 05:00:27;;;;;;;1.75;0.60;;;;;;;;;;5055416;28;20025;-47
2022/06/09 05:02:54;;;;;;;1.58;0.60;;;21.20;67.00;;;;;;5054807;28;20060;-46
2022/06/09 05:05:26;;;;;;;2.30;0.75;;;21.30;67.10;;;;;;5054986;28;20021;-47
2022/06/09 05:07:52;;;;;;;1.92;0.68;;;;;;;;;;5054936;28;20040;-46
2022/06/09 05:10:18;;;;;;;1.25;0.60;;;;;;;;;;5054890;28;20028;-46
2022/06/09 05:12:45;;;;;;;1.60;0.50;;;21.20;63.90;;;;;;5054891;28;20056;-46
2022/06/09 05:15:13;;;;;;;3.05;0.63;;;21.20;66.80;;;;;;5054728;28;20037;-47
2022/06/09 05:17:39;;;;;;;1.73;0.40;;;;;;;;;;5054809;28;20031;-47
2022/06/09 05:20:06;;;;;;;1.35;0.60;;;;;;;;;;5054767;28;20029;-47
2022/06/09 05:22:32;;;;;;;2.13;0.50;;;;;;;;;;5054708;28;20025;-47
2022/06/09 05:24:59;;;;;;;0.90;0.50;;;;;;;;;;5054616;28;20036;-47
2022/06/09 05:27:26;;;;;;;0.85;0.60;;;21.20;66.70;;;;;;5054841;28;20060;-47
2022/06/09 05:29:52;;;;;;;4.75;0.75;;;;;;;;;;5054540;28;20044;-46
2022/06/09 05:32:18;;;;;;;1.90;0.73;;;;;;;;;;5054488;28;20078;-47
2022/06/09 05:34:44;;;;;;;1.67;0.50;;;;;;;;;;5054416;28;20124;-46
2022/06/09 05:37:10;;;;;;;1.55;0.47;;;;;;;;;;5054406;28;20365;-47
2022/06/09 05:45:06;;;;;;;0.98;0.40;;;21.20;67.30;;;;;;5054286;28;20419;-46
2022/06/09 05:47:32;;;;;;;1.70;0.65;;;;;;;;;;5054173;28;20032;-46
2022/06/09 05:49:58;;;;;;;1.02;0.30;;;;;;;;;;5054135;28;20480;-46
2022/06/09 05:52:26;;;;;;;0.85;0.55;;;21.20;67.20;;;;;;5054354;28;20391;-47
2022/06/09 05:54:53;;;;;;;1.05;0.45;;;21.20;66.00;;;;;;5053985;28;20468;-46
2022/06/09 05:57:20;;;;;;;2.65;0.50;;;21.20;67.20;;;;;;5054075;28;20021;-46
2022/06/09 05:59:46;;;;;;;1.23;0.50;;;;;;;;;;5053989;28;20037;-46
2022/06/09 06:02:12;;;;;;;3.70;0.43;;;21.10;65.90;;;;;;5053560;28;20082;-46
2022/06/09 06:04:38;;;;;;;2.25;0.45;;;;;;;;;;5054213;28;20059;-45
2022/06/09 06:07:04;;;;;;;2.22;0.45;;;;;;;;;;5053857;28;20032;-45
2022/06/09 06:09:30;;;;;;;4.88;0.80;;;;;;;;;;5053800;28;20029;-45
2022/06/09 06:11:57;;;;;;;2.50;0.63;;;;;;;;;;5053811;28;20036;-46
2022/06/09 06:14:23;;;;;;;4.78;0.50;;;;;;;;;;5053636;28;20083;-45
2022/06/09 06:16:50;;;;;;;2.08;0.50;;;;;;;;;;5053682;28;20518;-45
2022/06/09 06:19:18;;;;;;;0.60;0.30;;;21.20;68.10;;;;;;5053858;28;20025;-47
2022/06/09 06:21:45;;;;;;;1.67;0.40;;;21.20;67.00;;;;;;5053661;28;20108;-47
2022/06/09 06:24:12;;;;;;;1.45;0.50;;;21.10;67.80;;;;;;5053931;28;20476;-46
2022/06/09 06:26:39;;;;;;;2.05;0.38;;;;;;;;;;5053452;28;20526;-46
2022/06/09 06:29:07;;;;;;;1.05;0.40;;;21.20;67.90;;;;;;5053396;28;20570;-45
2022/06/09 06:31:33;;;;;;;2.50;0.50;;;;;;;;;;5053290;28;20082;-46
2022/06/09 06:33:59;;;;;;;2.95;0.73;;;;;;;;;;5053224;28;20052;-46
2022/06/09 06:36:25;;;;;;;3.90;0.52;;;;;;;;;;5053152;28;20029;-46
2022/06/09 06:38:51;;;;;;;2.30;0.57;;;;;;;;;;5053243;28;20116;-46
2022/06/09 06:41:18;;;;;;;1.35;0.63;;;21.10;67.80;;;;;;5053441;28;20061;-46
2022/06/09 06:43:45;;;;;;;1.60;0.38;;;21.10;68.00;;;;;;5053154;28;20024;-46
2022/06/09 06:46:11;;;;;;;1.73;0.50;;;;;;;;;;5053072;28;20052;-46
2022/06/09 06:48:38;;;;;;;0.60;0.30;;;;;;;;;;5053020;28;20037;-47
2022/06/09 06:51:05;;;;;;;1.38;0.50;;;;;;;;;;5053095;28;20364;-46
2022/06/09 06:53:31;;;;;;;1.27;0.60;;;;;;;;;;5053174;28;20036;-45
2022/06/09 06:55:57;;;;;;;2.08;0.57;;;;;;;;;;5052950;28;20480;-45
2022/06/09 06:58:23;;;;;;;2.08;0.57;;;;;;;;;;5052822;28;20107;-46
2022/06/09 07:00:49;;;;;;;1.20;0.57;;;;;;;;;;5052439;28;20100;-46
2022/06/09 07:03:15;;;;;;;2.85;0.77;;;;;;;;;;5052634;28;20499;-45
2022/06/09 07:05:42;;;;;;;2.17;0.50;;;;;;;;;;5052612;28;20031;-45
2022/06/09 07:08:08;;;;;;;1.85;0.60;;;;;;;;;;5052744;28;20027;-46
2022/06/09 07:10:35;;;;;;;4.13;0.40;;;;;;;;;;5052994;28;20045;-45
2022/06/09 07:13:01;;;;;;;1.80;0.55;;;21.20;96.10;;;;;;5052668;28;20025;-46
2022/06/09 07:15:27;;;;;;;0.77;0.30;;;21.40;96.10;;;;;;5052528;28;20061;-45
2022/06/09 07:17:53;;;;;;;1.83;0.55;;;;;;;;;;5052473;28;20071;-45
2022/06/09 07:20:19;;;;;;;2.45;0.45;;;21.40;67.20;;;;;;5052575;28;20373;-47
2022/06/09 07:22:46;;;;;;;0.90;0.32;;;;;;;;;;5052297;28;20017;-46
2022/06/09 07:25:15;;;;;;;2.55;0.52;;;21.20;67.80;;;;;;5052356;28;20036;-45
2022/06/09 07:27:42;;;;;;;1.48;0.50;;;21.30;64.50;;;;;;5052477;28;20261;-46
2022/06/09 07:30:08;;;;;;;2.80;0.60;;;21.20;67.60;;;;;;5052410;28;20033;-46
2022/06/09 07:32:34;;;;;;;1.38;0.47;;;;;;;;;;5052203;28;20029;-46
2022/06/09 07:35:00;;;;;;;0.65;0.40;;;;;;;;;;5052228;28;20048;-46
2022/06/09 07:37:27;;;;;;;2.08;0.52;;;;;;;;;;5052273;28;20025;-45
2022/06/09 07:39:53;;;;;;;1.20;0.60;;;;;;;;;;5052153;28;20090;-46
2022/06/09 07:42:19;;;;;;;1.30;0.47;;;;;;;;;;5052192;28;20040;-46
2022/06/09 07:44:45;;;;;;;1.77;0.50;;;;;;;;;;5052056;28;20388;-47
2022/06/09 07:47:11;;;;;;;1.00;0.40;;;;;;;;;;5052174;28;20025;-46
2022/06/09 07:49:37;;;;;;;2.30;0.45;;;;;;;;;;5052142;28;20036;-46
2022/06/09 07:52:03;;;;;;;0.50;0.43;;;21.60;65.80;;;;;;5052374;28;20364;-46
2022/06/09 07:54:29;;;;;;;0.90;0.50;;;;;;;;;;5051916;28;20115;-45
2022/06/09 07:56:55;;;;;;;1.85;0.50;;;;;;;;;;5051957;28;20503;-46
2022/06/09 07:59:21;;;;;;;2.17;0.45;;;;;;;;;;5051995;28;20037;-46
2022/06/09 08:01:47;;;;;;;0.47;0.38;;;;;;;;;;5051878;28;20116;-45
2022/06/09 08:04:15;;;;;;;2.10;0.40;;;21.30;67.50;;;;;;5051829;28;20103;-46
2022/06/09 08:06:42;;;;;;;0.90;0.60;;;;;;;;;;5052098;28;20036;-46
2022/06/09 08:09:08;;;;;;;1.92;0.47;;;;;;;;;;5051936;28;20029;-46
2022/06/09 08:11:37;;;;;;;2.15;0.50;;;21.30;67.80;;;;;;5052547;28;20033;-45
2022/06/09 08:14:03;;;;;;;0.45;0.20;;;21.30;96.40;;;;;;5055852;28;20036;-46
2022/06/09 08:16:30;;;;;;;1.40;0.55;;;21.30;67.80;;;;;;5056050;28;20029;-45
2022/06/09 08:18:57;;;;;;;1.55;0.50;;;;;;;;;;5055967;28;20411;-47
2022/06/09 08:21:24;;;;;;;3.70;0.50;;;21.30;65.30;;;;;;5055844;28;20464;-46
2022/06/09 08:23:50;;;;;;;2.05;0.60;;;;;;;;;;5056033;28;20032;-45
2022/06/09 08:26:16;;;;;;;1.48;0.50;;;;;;;;;;5055824;28;20399;-46
2022/06/09 08:28:42;;;;;;;1.77;0.50;;;;;;;;;;5055694;28;20037;-46
2022/06/09 08:31:08;;;;;;;0.70;0.47;;;;;;;;;;5055966;28;20430;-46
2022/06/09 08:33:35;;;;;;;1.00;0.57;;;;;;;;;;5055509;28;20057;-46
2022/06/09 08:36:02;;;;;;;1.13;0.57;;;;;;;;;;5055569;28;20039;-46
2022/06/09 08:38:28;;;;;;;3.05;0.40;;;;;;;;;;5055543;28;20462;-45
2022/06/09 08:40:54;;;;;;;3.58;0.20;;;;;;;;;;5055720;28;20032;-46
2022/06/09 08:43:32;;;;;;;0.73;0.38;;;21.70;80.10;;;;;;5055525;28;20029;-46
2022/06/09 08:46:16;;;;;;;1.08;0.40;;;21.30;67.70;;;;;;5055442;28;20025;-45
2022/06/09 08:48:45;;;;;;;1.85;0.50;;;21.50;67.70;;;;;;5055369;28;20029;-47
2022/06/09 08:51:15;;;;;;;2.00;0.40;;;21.60;68.00;;;;;;5055394;28;20033;-47
2022/06/09 08:53:45;;;;;;;;;;;21.50;68.70;;;;;;5055986;28;20024;-47
2022/06/09 08:56:21;;;;;;;2.42;0.60;;;21.90;96.60;;;;;;5055232;28;19905;-47
2022/06/09 08:59:14;;;;;;;1.98;0.50;;;21.60;62.00;;;;;;5055192;28;20063;-46
2022/06/09 09:01:45;;;;;;;3.53;0.60;;;21.70;62.00;;;;;;5054570;28;20033;-46
2022/06/09 09:04:11;;;;;;;2.05;0.93;;;;;;;;;;5053815;28;20462;-46
2022/06/09 09:06:45;;;;;;;1.58;0.90;;;21.80;61.80;;;;;;5053886;28;20025;-45
2022/06/09 09:09:23;;;;;;;2.75;0.60;;;21.70;61.60;;;;;;5053867;28;20029;-46
2022/06/09 09:12:17;;;;;;;2.67;0.60;;;22.00;96.20;;;;;;5053849;28;20021;-46
2022/06/09 09:15:04;;;;;;;2.45;0.80;;;22.10;96.20;;;;;;5053693;28;20075;-47
2022/06/09 09:17:45;;;;;;;2.85;0.60;;;22.10;79.00;;;;;;5053775;28;20033;-45
2022/06/09 09:20:30;;;;;;;1.77;0.52;;;21.90;61.50;;;;;;5053665;28;20113;-46
2022/06/09 09:23:02;;;;;;;2.92;0.65;;;21.90;96.00;;;;;;5053117;28;20484;-47
2022/06/09 09:25:34;;;;;;;1.13;0.50;;;21.90;66.50;;;;;;5053836;28;20080;-45
2022/06/09 09:28:00;;;;;;;2.22;0.70;;;;;;;;;;5053791;28;20040;-46
2022/06/09 09:30:40;;;;;;;3.15;0.88;;;22.00;61.00;;;;;;5053492;28;20025;-45
2022/06/09 09:33:12;;;;;;;2.60;0.60;;;22.00;66.20;;;;;;5053465;28;20033;-46
2022/06/09 09:35:41;;;;;;;1.95;0.90;;;22.00;66.20;;;;;;5053377;28;20095;-46
2022/06/09 09:38:09;;;;;;;2.00;0.73;;;22.00;66.10;;;;;;5053366;28;20082;-46
2022/06/09 09:40:44;;;;;;;3.83;0.80;;;22.00;66.00;;;;;;5053413;28;20025;-45
2022/06/09 09:43:13;;;;;;;4.63;0.90;;;22.00;65.80;;;;;;5053319;28;20483;-46
2022/06/09 09:45:42;;;;;;;2.50;0.63;;;22.10;66.00;;;;;;5053317;28;20380;-45
2022/06/09 09:48:17;;;;;;;2.30;0.55;;;22.10;60.40;;;;;;5035633;28;20392;-46
2022/06/09 09:51:11;;;;;;;1.25;0.70;;;22.10;60.10;;;;;;5053082;28;20022;-46
2022/06/09 09:53:38;;;;;;;2.70;0.77;;;;;;;;;;5053200;28;20049;-45
2022/06/09 09:56:18;;;;;;;4.22;1.27;;;22.10;60.00;;;;;;5053325;28;20033;-46
2022/06/09 09:58:47;;;;;;;4.63;1.08;;;22.70;60.30;;;;;;5053252;28;20388;-46
2022/06/09 10:01:24;;;;;;;4.72;0.70;;;22.20;59.80;;;;;;5053124;28;20029;-46
2022/06/09 10:09:41;;;;;;;3.17;0.85;;;22.30;65.00;;;;;;5053944;28;20040;-48
2022/06/09 10:12:16;;;;;;;2.15;0.50;;;22.40;60.50;;;;;;5053859;28;20150;-46
2022/06/09 10:14:56;;;;;;;1.95;0.60;;;22.30;64.80;;;;;;5054007;28;20033;-46
2022/06/09 10:17:49;;;;;;;3.10;0.80;;;22.30;59.30;;;;;;5053692;28;20028;-46
2022/06/09 10:20:15;;;;;;;2.75;1.00;;;;;;;;;;5053619;28;20387;-46
2022/06/09 10:22:44;;;;;;;2.03;0.70;;;22.40;64.70;;;;;;5053677;28;20094;-47
2022/06/09 10:25:23;;;;;;;3.05;1.05;;;22.40;59.20;;;;;;5053776;28;20369;-46
2022/06/09 10:27:54;;;;;;;2.50;0.70;;;22.40;64.60;;;;;;5053464;28;20029;-46
2022/06/09 10:30:27;;;;;;;1.60;0.52;;;22.50;64.50;;;;;;5053965;28;20028;-47
2022/06/09 10:33:02;;;;;;;3.83;0.70;;;22.50;59.00;;;;;;5053444;28;20032;-46
2022/06/09 10:35:42;;;;;;;2.30;0.70;;;22.50;58.80;;;;;;5052481;28;20403;-46
2022/06/09 10:38:25;;;;;;;2.38;0.70;;;22.60;58.80;;;;;;5053529;28;20415;-46
2022/06/09 10:40:59;;;;;;;10.60;1.10;;;22.50;58.70;;;;;;5053395;28;20028;-46
2022/06/09 10:43:37;;;;;;;9.43;0.82;;;22.60;58.50;;;;;;5052993;28;20029;-47
2022/06/09 10:46:38;;;;;;;1.85;0.50;;;22.60;58.40;;;;;;5053126;28;20104;-46
2022/06/09 10:55:33;;;;;;;1.58;0.80;;;22.60;58.00;;;;;;5052918;28;20534;-46
2022/06/09 10:58:15;;;;;;;2.85;0.65;;;22.90;94.60;;;;;;5052765;28;20027;-46
2022/06/09 11:00:49;;;;;;;3.75;0.85;;;22.60;57.80;;;;;;5053067;28;20391;-47
2022/06/09 11:03:20;;;;;;;3.63;0.95;;;22.70;94.60;;;;;;5052477;28;20057;-47
2022/06/09 11:06:08;;;;;;;3.83;0.90;;;22.70;63.20;;;;;;5052933;28;20033;-47
2022/06/09 11:08:46;;;;;;;3.05;0.88;;;22.70;94.60;;;;;;5052672;28;20083;-46
2022/06/09 11:11:26;;;;;;;1.40;0.60;;;22.70;63.00;;;;;;5052694;28;20108;-48
2022/06/09 11:13:58;;;;;;;;;;;22.70;63.80;;;;;;5053004;28;20463;-46
2022/06/09 11:16:30;;;;;;;5.05;0.80;;;22.70;57.60;;;;;;5059144;28;20406;-46
2022/06/09 11:19:17;;;;;;;2.65;0.90;;;22.70;62.80;;;;;;5052480;28;20036;-46
2022/06/09 11:21:55;;;;;;;1.65;0.60;;;22.70;57.40;;;;;;5052358;28;20045;-46
2022/06/09 11:24:46;;;;;;;2.33;0.60;;;22.80;57.40;;;;;;5052400;28;20679;-46
2022/06/09 11:27:12;;;;;;;3.05;0.80;;;;;;;;;;5052431;28;20031;-47
2022/06/09 11:29:40;;;;;;;2.00;0.73;;;;;;;;;;5052273;28;20116;-47
2022/06/09 11:32:06;;;;;;;1.75;0.77;;;;;;;;;;5052537;28;20036;-46
2022/06/09 11:34:50;;;;;;;1.38;0.57;;;22.80;57.40;;;;;;5052054;28;20423;-46
2022/06/09 11:37:36;;;;;;;1.33;0.73;;;22.80;57.00;;;;;;5051919;28;20074;-46
2022/06/09 11:40:23;;;;;;;2.15;0.70;;;22.80;56.90;;;;;;5052032;28;20033;-46
2022/06/09 11:43:25;;;;;;;2.28;0.82;;;22.90;94.10;;;;;;5051930;28;20069;-48
2022/06/09 11:45:57;;;;;;;3.05;0.73;;;22.90;62.20;;;;;;5052069;28;20029;-45
2022/06/09 11:48:35;;;;;;;2.47;0.50;;;22.90;56.90;;;;;;5052219;28;20024;-46
2022/06/09 11:51:02;;;;;;;2.38;0.63;;;22.90;62.20;;;;;;5052254;28;20021;-45
2022/06/09 11:53:34;;;;;;;2.00;0.60;;;23.00;62.40;;;;;;5051721;28;20033;-47
2022/06/09 11:56:33;;;;;;;3.63;1.00;;;22.90;56.90;;;;;;5052042;28;20028;-46
2022/06/09 11:59:01;;;;;;;1.67;0.80;;;23.00;61.90;;;;;;5052072;28;20033;-46
2022/06/09 12:01:45;;;;;;;2.47;0.80;;;23.00;56.70;;;;;;5051942;28;20384;-45
2022/06/09 12:04:28;;;;;;;1.40;0.65;;;22.90;56.20;;;;;;5051884;28;20058;-46
2022/06/09 12:07:19;;;;;;;6.55;1.05;;;23.00;55.70;;;;;;5051838;28;20082;-46
2022/06/09 12:09:54;;;;;;;6.88;1.45;;;23.00;93.20;;;;;;5052041;28;20036;-46
2022/06/09 12:12:38;;;;;;;3.20;0.90;;;23.00;54.50;;;;;;5051795;28;20024;-45
2022/06/09 12:15:28;;;;;;;6.07;1.17;;;23.00;54.10;;;;;;5051631;28;20029;-46
2022/06/09 12:18:06;;;;;;;;;;;22.60;54.60;;;;;;5052394;28;20426;-47
2022/06/09 12:20:40;;;;;;;5.03;1.17;;;23.00;59.30;;;;;;5051681;28;19919;-47
2022/06/09 12:23:24;;;;;;;2.60;0.90;;;22.80;54.00;;;;;;5051999;28;20105;-46
2022/06/09 12:26:09;;;;;;;3.38;1.05;;;23.00;54.20;;;;;;5051714;28;20383;-46
2022/06/09 12:28:55;;;;;;;3.03;0.80;;;23.20;57.80;;;;;;5051717;28;20028;-46
2022/06/09 12:31:59;;;;;;;4.10;0.90;;;23.00;54.30;;;;;;5051922;28;20029;-46
2022/06/09 12:34:25;;;;;;;3.88;1.10;;;;;;;;;;5051449;28;20484;-45
2022/06/09 12:36:54;;;;;;;3.08;0.85;;;23.10;59.60;;;;;;5051578;28;20036;-45
2022/06/09 12:39:20;;;;;;;3.92;0.90;;;;;;;;;;5051882;28;20365;-46
2022/06/09 12:41:53;;;;;;;5.50;1.08;;;23.10;59.70;;;;;;5051585;28;20032;-47
2022/06/09 12:44:24;;;;;;;3.95;0.95;;;23.10;56.00;;;;;;5051553;28;20021;-45
2022/06/09 12:46:57;;;;;;;4.20;1.00;;;20.90;53.60;;;;;;5051404;28;20029;-45
2022/06/09 12:49:26;;;;;;;3.75;0.90;;;23.10;59.80;;;;;;5051384;28;20031;-46
2022/06/09 12:51:53;;;;;;;5.00;0.50;;;;;;;;;;5051334;28;20025;-45
2022/06/09 12:54:35;;;;;;;4.07;0.95;;;23.50;93.20;;;;;;5051437;28;20398;-46
2022/06/09 12:57:03;;;;;;;3.13;0.80;;;23.10;60.30;;;;;;5051363;28;20113;-46
2022/06/09 12:59:32;;;;;;;4.43;0.98;;;23.00;60.40;;;;;;5054910;28;20036;-45
2022/06/09 13:01:59;;;;;;;4.47;0.82;;;;;;;;;;5054657;28;20025;-45
2022/06/09 13:04:27;;;;;;;3.33;1.10;;;23.10;60.10;;;;;;5054928;28;20029;-45
2022/06/09 13:06:54;;;;;;;1.55;0.60;;;23.20;60.00;;;;;;5055131;28;20025;-47
2022/06/09 13:09:29;;;;;;;2.97;0.90;;;23.10;55.10;;;;;;5054995;28;20029;-46
2022/06/09 13:15:05;;;;;;;1.65;0.77;;;23.20;60.60;;;;;;5054891;28;20099;-46
2022/06/09 13:17:37;;;;;;;2.65;1.08;;;23.10;60.80;;;;;;5054738;28;20029;-46
2022/06/09 13:20:11;;;;;;;3.70;1.02;;;23.10;60.60;;;;;;5054702;28;20036;-47
2022/06/09 13:22:37;;;;;;;2.58;0.80;;;;;;;;;;5054912;28;20020;-49
2022/06/09 13:25:04;;;;;;;3.05;1.20;;;23.20;58.40;;;;;;5054487;28;20061;-47
2022/06/09 13:27:31;;;;;;;2.63;0.85;;;23.00;59.00;;;;;;5054474;28;20484;-48
2022/06/09 13:30:19;;;;;;;3.38;1.00;;;23.10;55.30;;;;;;5054453;28;20112;-49
2022/06/09 13:32:49;;;;;;;2.55;0.88;;;23.20;60.80;;;;;;5054427;28;20033;-48
2022/06/09 13:35:33;;;;;;;5.05;0.90;;;23.10;55.30;;;;;;5054241;28;20036;-47
2022/06/09 13:38:23;;;;;;;1.63;0.70;;;21.30;54.60;;;;;;5054530;28;20380;-47
2022/06/09 13:40:58;;;;;;;2.35;0.80;;;23.10;60.70;;;;;;5054328;28;20040;-48
2022/06/09 13:43:29;;;;;;;3.35;1.00;;;23.20;55.70;;;;;;5054143;28;20124;-48
2022/06/09 13:46:11;;;;;;;3.88;1.02;;;23.10;61.00;;;;;;5054097;28;20082;-47
2022/06/09 13:48:52;;;;;;;4.85;1.10;;;23.10;55.90;;;;;;5054134;28;20108;-47
2022/06/09 13:51:31;;;;;;;4.55;0.70;;;23.10;55.80;;;;;;5054348;28;20025;-49
2022/06/09 13:54:26;;;;;;;2.25;0.65;;;23.00;55.70;;;;;;5054078;28;20033;-47
2022/06/09 13:56:52;;;;;;;3.67;1.05;;;;;;;;;;5054009;28;20167;-47
2022/06/09 13:59:19;;;;;;;7.13;1.50;;;23.10;61.20;;;;;;5053937;28;20052;-47
2022/06/09 14:01:45;;;;;;;2.92;1.42;;;;;;;;;;5054152;28;20013;-47
2022/06/09 14:04:44;;;;;;;4.68;1.30;;;23.10;62.10;;;;;;5053801;28;20538;-47
2022/06/09 14:07:28;;;;;;;4.30;0.93;;;23.00;60.50;;;;;;5036360;28;20048;-47